Main page
METAR-TAF:

METAR-TAF

Airports :

Wiener Neustadt East Airport

Wiener Neustadt, Austria

latitude: 47-50-36N, longitude: 016-15-29E, elevation: 272 m

Current weather observation

The report was made 9 hours and 20 minutes ago, at 17:00 UTC
Wind 5 kt from the North/Northwest
Temperature
Pressure
light rain showers

METAR: LOAN 031700Z 33005KT 12KM -SHRA FEW020CU BKN035SC

Time: 04:20 (02:20 UTC)

Forecast

The report was made 14 hours and 55 minutes ago, at 11:25 UTC
Forecast valid from 03 at 12 UTC to 03 at 21 UTC
Wind 4 kt from variable directions
Visibility 10 km or more
Few clouds at a height of 500 ft
Scattered clouds at a height of 3000 ft
Broken clouds at a height of 4000 ft
Temporary
from 03 at 12 UTC to 03 at 21 UTC
Wind 10 kt from variable directions
Visibility: 4000 m
Scattered clouds at a height of 500 ft
Broken clouds at a height of 1400 ft
rain showers

TAF: LOAN 031125Z 0312/0321 VRB04KT 9999 FEW005 SCT030 BKN040 TEMPO 0312/0321 VRB10KT 4000 SHRA SCT005 BKN014

Weather observations and forecasts of more than 4000 airports (METAR and TAF reports).

The available stations are represented by yellow and red dots on the map.

Hover mouse over dot to see the name of the station.

Then click to see weather observations and forecasts.

To change the map : click on the green buttons with a black cross to zoom in, on the green button with a dash to zoom out, or on the green arrows for adjacent maps.


METAR-TAF: